Time;durP1;ratioP1;P1;durP2;ratioP2;P2;SDS_P1;SDS_P2;PMS_P1;PMS_P2;Temp;Humidity;BMP_temperature;BMP_pressure;BME280_temperature;BME280_humidity;BME280_pressure;Samples;Min_cycle;Max_cycle;Signal;HPM_P1;HPM_P2
2022/05/19 00:02:23;;;;;;;;;3.00;3.00;25.70;99.90;;;;;;5018872;28;9022;-67
2022/05/19 00:04:54;;;;;;;;;3.75;3.75;25.70;99.90;;;;;;5014448;28;8836;-67
2022/05/19 00:07:26;;;;;;;;;3.00;3.00;25.80;99.90;;;;;;5015146;28;8882;-68
2022/05/19 00:09:57;;;;;;;;;2.80;2.80;25.80;99.90;;;;;;5024712;28;8817;-68
2022/05/19 00:12:27;;;;;;;;;1.75;1.75;25.80;99.90;;;;;;5023387;28;8887;-66
2022/05/19 00:14:59;;;;;;;;;3.25;3.25;25.80;99.90;;;;;;5018396;28;9585;-67
2022/05/19 00:17:30;;;;;;;;;4.75;3.25;25.90;99.90;;;;;;5018997;28;8846;-66
2022/05/19 00:20:02;;;;;;;;;2.00;2.00;25.80;99.90;;;;;;5004899;28;8882;-66
2022/05/19 00:22:32;;;;;;;;;2.75;2.75;25.80;99.90;;;;;;5018017;28;8822;-66
2022/05/19 00:25:03;;;;;;;;;2.00;2.00;25.90;99.90;;;;;;5016545;28;8981;-67
2022/05/19 00:27:32;;;;;;;;;4.50;3.25;25.90;99.90;;;;;;5013531;28;8857;-67
2022/05/19 00:30:04;;;;;;;;;5.50;3.00;25.90;99.90;;;;;;5020035;28;9007;-65
2022/05/19 00:32:35;;;;;;;;;2.50;2.25;25.80;99.90;;;;;;5012244;28;8887;-66
2022/05/19 00:35:06;;;;;;;;;4.25;3.25;25.80;99.90;;;;;;5019129;28;8903;-67
2022/05/19 00:37:36;;;;;;;;;3.75;3.75;25.80;99.90;;;;;;5017131;28;8874;-66
2022/05/19 00:40:09;;;;;;;;;3.00;3.00;25.80;99.90;;;;;;5005788;28;8861;-66
2022/05/19 00:42:43;;;;;;;;;4.75;4.00;25.80;99.90;;;;;;5014759;28;8822;-67
2022/05/19 00:45:25;;;;;;;;;4.75;3.25;25.80;99.90;;;;;;5013375;28;8876;-67
2022/05/19 00:48:06;;;;;;;;;3.25;2.00;25.70;99.90;;;;;;5017447;28;8844;-67
2022/05/19 00:50:45;;;;;;;;;3.75;3.75;25.70;99.90;;;;;;5020164;28;8998;-67
2022/05/19 00:53:30;;;;;;;;;4.75;3.25;25.60;99.90;;;;;;5019389;28;8849;-67
2022/05/19 00:56:10;;;;;;;;;4.50;3.00;25.60;99.90;;;;;;5028574;28;8888;-65
2022/05/19 00:58:49;;;;;;;;;7.00;4.00;25.40;99.90;;;;;;5016354;28;8964;-66
2022/05/19 01:01:20;;;;;;;;;4.75;3.75;25.30;99.90;;;;;;5019206;28;9783;-65
2022/05/19 01:04:03;;;;;;;;;3.00;3.00;25.30;99.90;;;;;;5017420;28;8984;-66
2022/05/19 01:06:36;;;;;;;;;7.00;4.00;25.20;99.90;;;;;;5014908;28;8862;-66
2022/05/19 01:09:09;;;;;;;;;3.00;3.00;25.20;99.90;;;;;;5014980;28;8888;-66
2022/05/19 01:11:41;;;;;;;;;4.50;3.25;25.10;99.90;;;;;;5015209;28;8829;-67
2022/05/19 01:14:13;;;;;;;;;3.00;3.00;25.10;99.90;;;;;;5004987;28;8881;-67
2022/05/19 01:16:45;;;;;;;;;5.00;3.75;25.10;99.90;;;;;;5028307;28;8853;-67
2022/05/19 01:19:39;;;;;;;;;3.50;3.50;25.10;99.90;;;;;;5023257;28;8845;-67
2022/05/19 01:22:46;;;;;;;;;2.00;2.00;25.00;99.90;;;;;;5013722;28;8814;-68
2022/05/19 01:25:23;;;;;;;;;1.50;1.50;24.80;99.90;;;;;;4999837;28;8903;-66
2022/05/19 01:27:54;;;;;;;;;3.50;2.00;24.80;99.90;;;;;;5018682;28;8837;-67
2022/05/19 01:30:26;;;;;;;;;4.00;4.00;24.60;99.90;;;;;;5012598;28;8980;-66
2022/05/19 01:33:00;;;;;;;;;4.50;4.00;24.60;99.90;;;;;;5016476;28;8846;-67
2022/05/19 01:35:34;;;;;;;;;3.00;2.75;24.60;99.90;;;;;;5026929;28;9558;-66
2022/05/19 01:38:15;;;;;;;;;4.00;4.00;24.60;99.90;;;;;;5014545;28;9007;-67
2022/05/19 01:41:16;;;;;;;;;3.50;3.50;24.50;99.90;;;;;;5012160;28;8860;-67
2022/05/19 01:44:14;;;;;;;;;2.00;2.00;24.50;99.90;;;;;;5014936;28;8904;-70
2022/05/19 01:46:49;;;;;;;;;5.25;2.75;24.50;99.90;;;;;;5023157;28;8999;-67
2022/05/19 01:49:36;;;;;;;;;4.00;4.00;24.50;99.90;;;;;;5011472;28;9026;-67
2022/05/19 01:52:45;;;;;;;;;4.25;4.25;24.50;99.90;;;;;;5018499;28;8868;-69
2022/05/19 01:55:36;;;;;;;;;4.75;4.00;24.50;99.90;;;;;;5011125;28;8845;-67
2022/05/19 01:58:39;;;;;;;;;3.00;3.00;24.40;99.90;;;;;;5029186;28;9039;-68
2022/05/19 02:01:11;;;;;;;;;5.25;5.25;24.30;99.90;;;;;;5015565;28;8870;-65
2022/05/19 02:03:53;;;;;;;;;3.00;3.00;24.30;99.90;;;;;;5015578;28;8868;-66
2022/05/19 02:06:33;;;;;;;;;2.00;2.00;24.30;99.90;;;;;;5011928;28;8880;-67
2022/05/19 02:09:43;;;;;;;;;3.00;3.00;24.30;99.90;;;;;;5014635;28;8893;-66
2022/05/19 02:12:16;;;;;;;;;5.50;4.00;24.20;99.90;;;;;;4976535;28;8856;-66
2022/05/19 02:14:55;;;;;;;;;4.25;4.25;24.20;99.90;;;;;;5023346;28;8888;-67
2022/05/19 02:17:31;;;;;;;;;6.00;4.50;24.10;99.90;;;;;;5014441;28;8817;-66
2022/05/19 02:20:09;;;;;;;;;3.00;3.00;23.90;99.90;;;;;;5014816;28;8841;-66
2022/05/19 02:22:44;;;;;;;;;2.00;2.00;23.90;99.90;;;;;;5000672;28;8861;-66
2022/05/19 02:25:36;;;;;;;;;3.75;3.75;23.90;99.90;;;;;;5006325;28;8868;-66
2022/05/19 02:28:44;;;;;;;;;4.00;3.50;23.90;99.90;;;;;;5028647;28;8904;-67
2022/05/19 02:31:16;;;;;;;;;3.75;3.50;23.70;99.90;;;;;;5013712;28;9003;-66
2022/05/19 02:33:47;;;;;;;;;6.00;5.00;23.60;99.90;;;;;;5016754;28;8852;-66
2022/05/19 02:36:20;;;;;;;;;2.50;2.50;23.60;99.90;;;;;;5010393;28;9028;-67
2022/05/19 02:38:51;;;;;;;;;2.00;2.00;23.60;99.90;;;;;;4993204;28;8904;-67
2022/05/19 02:41:28;;;;;;;;;4.25;3.00;23.50;99.90;;;;;;5014329;28;8848;-67
2022/05/19 02:43:58;;;;;;;;;4.50;3.00;23.50;99.90;;;;;;5016465;28;8826;-65
2022/05/19 02:46:28;;;;;;;;;3.75;2.75;23.40;99.90;;;;;;5015339;28;8869;-66
2022/05/19 02:49:01;;;;;;;;;2.75;2.50;23.30;99.90;;;;;;5015132;28;8890;-67
2022/05/19 02:51:32;;;;;;;;;5.00;3.25;23.30;99.90;;;;;;5034625;28;8840;-67
2022/05/19 02:54:02;;;;;;;;;3.00;1.75;23.20;99.90;;;;;;5019223;28;8996;-66
2022/05/19 02:56:35;;;;;;;;;4.75;3.25;23.20;99.90;;;;;;4985237;28;8872;-68
2022/05/19 02:59:06;;;;;;;;;5.00;5.00;23.20;99.90;;;;;;5010885;28;9550;-69
2022/05/19 03:01:37;;;;;;;;;3.00;3.00;23.10;99.90;;;;;;5002487;28;8880;-68
2022/05/19 03:04:07;;;;;;;;;5.75;4.00;23.00;99.90;;;;;;5017131;28;8825;-69
2022/05/19 03:06:38;;;;;;;;;4.00;4.00;23.00;99.90;;;;;;5014645;28;8849;-69
2022/05/19 03:09:09;;;;;;;;;5.75;4.00;22.90;99.90;;;;;;5014617;28;8913;-67
2022/05/19 03:11:41;;;;;;;;;1.50;1.50;22.90;99.90;;;;;;5025275;28;8837;-69
2022/05/19 03:14:12;;;;;;;;;3.00;3.00;22.80;99.90;;;;;;5013143;28;9562;-69
2022/05/19 03:16:43;;;;;;;;;4.00;4.00;22.80;99.90;;;;;;5018054;28;8857;-68
2022/05/19 03:19:16;;;;;;;;;3.00;2.50;22.80;99.90;;;;;;5017028;28;8873;-71
2022/05/19 03:21:47;;;;;;;;;4.25;4.00;22.60;99.90;;;;;;4995630;28;8872;-71
2022/05/19 03:24:22;;;;;;;;;4.00;4.00;22.50;99.90;;;;;;5016579;28;8884;-70
2022/05/19 03:26:53;;;;;;;;;4.75;4.00;22.50;99.90;;;;;;5028394;28;8872;-71
2022/05/19 03:29:24;;;;;;;;;4.00;2.25;22.50;99.90;;;;;;5018729;28;8845;-70
2022/05/19 03:31:57;;;;;;;;;6.00;4.50;22.50;99.90;;;;;;5011434;28;9062;-70
2022/05/19 03:34:28;;;;;;;;;5.25;5.25;22.40;99.90;;;;;;5013692;28;8837;-69
2022/05/19 03:37:07;;;;;;;;;5.50;3.75;22.30;99.90;;;;;;5010614;28;8871;-71
2022/05/19 03:39:38;;;;;;;;;5.75;4.00;22.40;99.90;;;;;;5013482;28;8834;-68
2022/05/19 03:42:09;;;;;;;;;5.25;2.25;22.30;99.90;;;;;;5000378;28;8849;-67
2022/05/19 03:44:41;;;;;;;;;4.25;4.25;22.20;99.90;;;;;;5022917;28;8950;-68
2022/05/19 03:47:11;;;;;;;;;2.00;2.00;22.10;99.90;;;;;;5018274;28;9605;-68
2022/05/19 03:49:42;;;;;;;;;4.33;4.33;22.10;99.90;;;;;;4997254;28;8902;-68
2022/05/19 03:52:14;;;;;;;;;5.25;3.00;22.10;99.90;;;;;;5004254;28;9070;-68
2022/05/19 03:54:45;;;;;;;;;2.00;2.00;22.00;99.90;;;;;;5018294;28;9555;-70
2022/05/19 03:57:21;;;;;;;;;7.75;4.75;22.00;99.90;;;;;;5012662;28;8881;-70
2022/05/19 03:59:52;;;;;;;;;2.00;2.00;21.90;99.90;;;;;;5000083;28;9479;-69
2022/05/19 04:02:23;;;;;;;;;6.75;5.00;21.80;99.90;;;;;;5017806;28;8938;-70
2022/05/19 04:05:07;;;;;;;;;4.00;2.67;21.80;99.90;;;;;;5013197;28;8896;-70
2022/05/19 04:07:38;;;;;;;;;3.00;3.00;21.80;99.90;;;;;;5024267;28;9057;-69
2022/05/19 04:10:10;;;;;;;;;3.75;3.75;21.70;99.90;;;;;;5021027;28;9041;-70
2022/05/19 04:12:43;;;;;;;;;4.50;3.75;21.70;99.90;;;;;;5018511;28;8825;-70
2022/05/19 04:15:14;;;;;;;;;2.33;2.33;21.70;99.90;;;;;;5020944;28;8904;-69
2022/05/19 04:17:45;;;;;;;;;5.33;3.67;21.60;99.90;;;;;;5005751;28;9007;-69
2022/05/19 04:20:17;;;;;;;;;4.00;3.00;21.60;99.90;;;;;;5016326;28;8973;-70
2022/05/19 04:22:48;;;;;;;;;4.00;4.00;21.50;99.90;;;;;;5022081;28;9006;-69
2022/05/19 04:25:20;;;;;;;;;5.67;5.33;21.50;99.90;;;;;;5016404;28;9094;-69
2022/05/19 04:27:52;;;;;;;;;3.33;3.33;21.50;99.90;;;;;;5016240;28;9167;-69
2022/05/19 04:30:23;;;;;;;;;5.67;5.67;21.50;99.90;;;;;;5017804;28;9204;-70
2022/05/19 04:32:56;;;;;;;;;4.00;4.00;21.40;99.90;;;;;;5017387;28;9210;-70
2022/05/19 04:35:31;;;;;;;;;5.33;3.33;21.40;99.90;;;;;;5017974;28;9087;-70
2022/05/19 04:38:15;;;;;;;;;3.00;3.00;21.40;99.90;;;;;;5014955;28;9349;-70
2022/05/19 04:40:48;;;;;;;;;5.33;4.00;21.30;99.90;;;;;;5014335;28;9233;-71
2022/05/19 04:43:23;;;;;;;;;4.67;4.67;21.30;99.90;;;;;;5020127;28;9222;-71
2022/05/19 04:45:54;;;;;;;;;4.00;4.00;21.20;99.90;;;;;;5011520;28;9086;-70
2022/05/19 04:48:27;;;;;;;;;6.33;5.00;21.20;99.90;;;;;;5019104;28;9270;-69
2022/05/19 04:50:59;;;;;;;;;4.00;4.00;21.20;99.90;;;;;;5015252;28;9198;-71
2022/05/19 04:53:34;;;;;;;;;2.67;2.67;21.20;99.90;;;;;;5018366;28;9847;-69
2022/05/19 04:56:05;;;;;;;;;4.00;4.00;21.10;99.90;;;;;;5012495;28;9275;-69
2022/05/19 04:58:37;;;;;;;;;5.00;3.67;21.10;99.90;;;;;;5019183;28;9947;-69
2022/05/19 05:01:10;;;;;;;;;5.67;4.00;21.00;99.90;;;;;;5023172;28;9188;-70
2022/05/19 05:03:40;;;;;;;;;3.33;3.33;21.00;99.90;;;;;;5033408;28;9171;-63
2022/05/19 05:06:12;;;;;;;;;5.00;4.00;21.00;99.90;;;;;;5016055;28;9274;-62
2022/05/19 05:08:44;;;;;;;;;6.00;4.00;21.00;99.90;;;;;;5017302;28;9184;-70
2022/05/19 05:11:15;;;;;;;;;6.00;4.00;20.90;99.90;;;;;;5013616;28;9209;-70
2022/05/19 05:13:45;;;;;;;;;6.33;4.33;20.90;99.90;;;;;;5019067;28;9858;-69
2022/05/19 05:16:17;;;;;;;;;3.00;3.00;20.80;99.90;;;;;;5023767;28;9252;-70
2022/05/19 05:18:48;;;;;;;;;7.00;7.00;20.80;99.90;;;;;;4996273;28;9467;-69
2022/05/19 05:21:20;;;;;;;;;7.33;6.00;20.80;99.90;;;;;;5014507;28;9850;-69
2022/05/19 05:23:52;;;;;;;;;2.00;2.00;20.80;99.90;;;;;;5016135;28;9797;-70
2022/05/19 05:26:23;;;;;;;;;4.00;3.00;20.80;99.90;;;;;;5002850;28;9180;-69
2022/05/19 05:28:55;;;;;;;;;5.00;5.00;20.70;99.90;;;;;;4998200;28;9396;-70
2022/05/19 05:31:28;;;;;;;;;3.00;3.00;20.60;99.90;;;;;;5016402;28;9372;-69
2022/05/19 05:33:59;;;;;;;;;4.33;3.00;20.60;99.90;;;;;;5000261;28;10020;-70
2022/05/19 05:36:30;;;;;;;;;7.67;5.33;20.60;99.90;;;;;;5018821;28;9408;-69
2022/05/19 05:39:04;;;;;;;;;7.33;6.00;20.60;99.90;;;;;;5009465;28;9340;-70
2022/05/19 05:41:37;;;;;;;;;5.00;5.00;20.50;99.90;;;;;;5016926;28;9535;-69
2022/05/19 05:44:08;;;;;;;;;4.00;4.00;20.50;99.90;;;;;;5015562;28;9217;-70
2022/05/19 05:46:42;;;;;;;;;3.00;3.00;20.50;99.90;;;;;;5009989;28;10095;-69
2022/05/19 05:49:18;;;;;;;;;4.00;4.00;20.50;99.90;;;;;;5014606;28;9421;-69
2022/05/19 05:51:48;;;;;;;;;3.67;2.67;20.40;99.90;;;;;;5018837;28;9413;-69
2022/05/19 05:54:19;;;;;;;;;4.00;3.67;20.40;99.90;;;;;;4993352;28;9487;-69
2022/05/19 05:56:56;;;;;;;;;4.00;2.33;20.40;99.90;;;;;;5011623;28;9466;-69
2022/05/19 05:59:27;;;;;;;;;12.25;5.00;20.30;99.90;;;;;;5019999;28;9480;-68
2022/05/19 06:01:57;;;;;;;;;8.25;3.00;20.40;99.90;;;;;;5016373;28;9626;-70
2022/05/19 06:04:28;;;;;;;;;3.25;3.25;20.30;99.90;;;;;;5013480;28;9763;-70
2022/05/19 06:07:00;;;;;;;;;2.67;2.67;20.30;99.90;;;;;;5004445;28;9727;-69
2022/05/19 06:09:33;;;;;;;;;4.00;4.00;20.20;99.90;;;;;;5015734;28;9705;-68
2022/05/19 06:12:05;;;;;;;;;4.67;4.00;20.20;99.90;;;;;;4998619;28;9804;-68
2022/05/19 06:14:35;;;;;;;;;5.50;5.00;20.20;99.90;;;;;;5014512;28;9516;-69
2022/05/19 06:17:06;;;;;;;;;5.75;4.75;20.20;99.90;;;;;;5014536;28;9738;-69
2022/05/19 06:19:37;;;;;;;;;4.00;4.00;20.20;99.90;;;;;;5014694;28;9749;-69
2022/05/19 06:22:09;;;;;;;;;4.25;4.25;20.10;99.90;;;;;;5014897;28;9681;-70
2022/05/19 06:24:40;;;;;;;;;3.67;3.67;20.10;99.90;;;;;;5012615;28;9677;-70
2022/05/19 06:27:12;;;;;;;;;9.00;6.00;20.10;99.90;;;;;;5013903;28;9503;-69
2022/05/19 06:29:43;;;;;;;;;5.33;3.33;20.10;99.90;;;;;;5015406;28;9900;-69
2022/05/19 06:32:14;;;;;;;;;5.33;5.33;20.00;99.90;;;;;;5020362;28;9448;-69
2022/05/19 06:34:46;;;;;;;;;5.00;5.00;20.00;99.90;;;;;;5016182;28;9557;-69
2022/05/19 06:37:21;;;;;;;;;2.75;2.75;20.00;99.90;;;;;;5015361;28;9458;-69
2022/05/19 06:39:53;;;;;;;;;2.67;2.67;19.90;99.90;;;;;;5013885;28;9774;-70
2022/05/19 06:42:23;;;;;;;;;3.25;3.25;19.90;99.90;;;;;;5024898;28;9677;-69
2022/05/19 06:44:56;;;;;;;;;3.67;3.00;19.90;99.90;;;;;;5000475;28;9716;-69
2022/05/19 06:47:28;;;;;;;;;5.00;4.33;19.80;99.90;;;;;;4999821;28;9546;-69
2022/05/19 06:49:59;;;;;;;;;3.00;3.00;19.80;99.90;;;;;;5019149;28;9547;-69
2022/05/19 06:52:32;;;;;;;;;5.33;4.00;19.80;99.90;;;;;;5014656;28;9595;-69
2022/05/19 06:55:03;;;;;;;;;3.25;3.25;19.80;99.90;;;;;;5017452;28;9555;-69
2022/05/19 06:57:35;;;;;;;;;2.25;2.25;19.70;99.90;;;;;;5012977;28;9518;-68
2022/05/19 07:00:10;;;;;;;;;4.00;4.00;19.70;99.90;;;;;;5021147;28;10242;-69
2022/05/19 07:02:45;;;;;;;;;3.67;3.00;19.70;99.90;;;;;;5015557;28;9650;-69
2022/05/19 07:05:19;;;;;;;;;5.00;5.00;19.70;99.90;;;;;;5011478;28;9474;-68
2022/05/19 07:07:50;;;;;;;;;5.75;5.75;19.70;99.90;;;;;;5028001;28;9483;-69
2022/05/19 07:10:22;;;;;;;;;5.00;2.33;19.60;99.90;;;;;;5008063;28;9614;-72
2022/05/19 07:12:55;;;;;;;;;9.33;4.33;19.60;99.90;;;;;;5014554;28;9606;-69
2022/05/19 07:15:29;;;;;;;;;4.50;4.00;19.60;99.90;;;;;;5023906;28;10071;-69
2022/05/19 07:17:59;;;;;;;;;4.00;4.00;19.60;99.90;;;;;;5020306;28;9758;-70
2022/05/19 07:20:49;;;;;;;;;3.00;3.00;19.50;99.90;;;;;;5018865;28;9810;-70
2022/05/19 07:23:28;;;;;;;;;3.25;3.25;19.50;99.90;;;;;;5016496;28;9931;-70
2022/05/19 07:25:59;;;;;;;;;4.75;4.75;19.50;99.90;;;;;;5020408;28;9516;-69
2022/05/19 07:28:30;;;;;;;;;3.25;3.25;19.50;99.90;;;;;;5008771;28;9611;-69
2022/05/19 07:31:00;;;;;;;;;6.25;6.25;19.50;99.90;;;;;;5022285;28;9597;-67
2022/05/19 07:33:36;;;;;;;;;6.00;6.00;19.40;99.90;;;;;;5014408;28;9860;-69
2022/05/19 07:36:08;;;;;;;;;3.25;3.25;19.40;99.90;;;;;;5023199;28;9647;-69
2022/05/19 07:38:40;;;;;;;;;4.25;3.50;19.40;99.90;;;;;;5013400;28;9636;-68
2022/05/19 07:41:12;;;;;;;;;3.25;3.25;19.40;99.90;;;;;;5017650;28;10408;-69
2022/05/19 07:43:44;;;;;;;;;5.00;5.00;19.40;99.90;;;;;;5015147;28;9776;-70
2022/05/19 07:46:18;;;;;;;;;5.00;3.25;19.30;99.90;;;;;;5023084;28;9753;-69
2022/05/19 07:48:54;;;;;;;;;6.25;3.00;19.30;99.90;;;;;;5012322;28;10081;-69
2022/05/19 07:51:27;;;;;;;;;3.25;2.75;19.30;99.90;;;;;;5020147;28;9940;-69
2022/05/19 07:53:59;;;;;;;;;4.50;4.50;19.30;99.90;;;;;;5010805;28;10213;-69
2022/05/19 07:56:30;;;;;;;;;3.00;3.00;19.20;99.90;;;;;;5014510;28;10299;-68
2022/05/19 07:59:01;;;;;;;;;3.00;3.00;19.20;99.90;;;;;;5020413;28;10343;-69
2022/05/19 08:01:32;;;;;;;;;3.75;3.75;19.20;99.90;;;;;;5016966;28;10543;-69
2022/05/19 08:04:05;;;;;;;;;4.75;3.75;19.20;99.90;;;;;;5018099;28;10424;-69
2022/05/19 08:06:36;;;;;;;;;5.25;4.75;19.10;99.90;;;;;;5031352;28;10540;-68
2022/05/19 08:11:57;;;;;;;;;7.25;7.00;19.10;99.90;;;;;;5019620;28;10550;-68
2022/05/19 08:17:32;;;;;;;;;13.25;12.00;19.00;99.90;;;;;;5015374;28;10734;-69
2022/05/19 08:20:06;;;;;;;;;10.25;9.25;19.00;99.90;;;;;;5028634;28;11432;-69
2022/05/19 08:22:37;;;;;;;;;12.75;11.25;19.00;99.90;;;;;;5002772;28;11094;-70
2022/05/19 08:25:08;;;;;;;;;10.00;10.00;19.00;99.90;;;;;;4996323;28;11271;-69
2022/05/19 08:27:40;;;;;;;;;12.00;12.00;19.00;99.90;;;;;;5016627;28;11554;-70
2022/05/19 08:30:13;;;;;;;;;14.25;12.50;18.90;99.90;;;;;;5016654;28;10999;-69
2022/05/19 08:32:43;;;;;;;;;14.25;14.25;18.90;99.90;;;;;;5028874;28;10927;-69
2022/05/19 08:35:15;;;;;;;;;18.00;17.00;18.90;99.90;;;;;;5032297;28;11035;-68
2022/05/19 08:37:45;;;;;;;;;20.50;17.25;18.90;99.90;;;;;;5019971;28;11154;-68
2022/05/19 08:40:20;;;;;;;;;21.75;20.75;18.80;99.90;;;;;;5005510;28;10996;-68
2022/05/19 08:42:57;;;;;;;;;25.75;22.75;18.80;99.90;;;;;;4999992;28;11126;-69
2022/05/19 08:45:37;;;;;;;;;25.50;25.50;18.80;99.90;;;;;;5000638;28;11373;-69
2022/05/19 08:48:15;;;;;;;;;29.75;29.25;18.80;99.90;;;;;;5020137;28;11271;-68
2022/05/19 08:51:01;;;;;;;;;26.25;26.25;18.70;99.90;;;;;;5022133;28;11270;-69
2022/05/19 08:53:37;;;;;;;;;21.75;19.75;18.80;99.90;;;;;;5010549;28;11571;-69
2022/05/19 08:56:32;;;;;;;;;18.25;18.25;18.70;99.90;;;;;;5016487;28;11535;-68
2022/05/19 08:59:06;;;;;;;;;9.25;9.25;18.70;99.90;;;;;;5017554;28;11107;-69
2022/05/19 09:01:46;;;;;;;;;8.50;8.50;18.60;99.90;;;;;;5025029;28;10888;-68
2022/05/19 09:04:31;;;;;;;;;4.50;4.50;18.60;99.90;;;;;;5012786;28;10813;-68
2022/05/19 09:10:44;;;;;;;;;3.50;3.25;18.60;99.90;;;;;;5015057;28;11143;-69
2022/05/19 09:13:17;;;;;;;;;5.25;5.25;18.50;99.90;;;;;;5016089;28;10075;-69
2022/05/19 09:15:49;;;;;;;;;4.00;4.00;18.50;99.90;;;;;;5019329;28;10417;-69
2022/05/19 09:18:33;;;;;;;;;4.75;4.00;18.50;99.90;;;;;;5015745;28;10091;-69
2022/05/19 09:21:05;;;;;;;;;6.25;6.25;18.50;99.90;;;;;;5025026;28;10161;-69
2022/05/19 09:23:39;;;;;;;;;6.25;5.00;18.50;99.90;;;;;;4998573;28;10173;-68
2022/05/19 09:26:41;;;;;;;;;3.75;2.00;18.50;99.90;;;;;;5030483;28;10990;-68
2022/05/19 09:29:18;;;;;;;;;5.75;5.75;18.40;99.90;;;;;;5013351;28;10081;-68
2022/05/19 09:31:56;;;;;;;;;4.00;4.00;18.40;99.90;;;;;;5018578;28;11698;-69
2022/05/19 09:34:29;;;;;;;;;5.50;3.75;18.40;99.90;;;;;;4998676;28;9884;-68
2022/05/19 09:37:08;;;;;;;;;6.00;4.25;18.30;99.90;;;;;;5011034;28;10113;-68
2022/05/19 09:39:59;;;;;;;;;4.50;4.50;18.30;99.90;;;;;;5015928;28;10082;-69
2022/05/19 09:42:37;;;;;;;;;5.50;5.50;18.30;99.90;;;;;;4996215;28;10029;-68
2022/05/19 09:45:09;;;;;;;;;3.50;3.50;18.30;99.90;;;;;;5002379;28;9965;-69
2022/05/19 09:47:46;;;;;;;;;4.25;3.00;18.30;99.90;;;;;;5008247;28;9980;-68
2022/05/19 09:50:32;;;;;;;;;8.25;6.75;18.30;99.90;;;;;;5008026;28;10231;-68
2022/05/19 09:53:08;;;;;;;;;4.00;4.00;18.20;99.90;;;;;;5018111;28;10070;-68
2022/05/19 09:55:42;;;;;;;;;6.00;5.00;18.20;99.90;;;;;;4997631;28;10334;-67
2022/05/19 09:58:17;;;;;;;;;6.00;4.50;18.10;99.90;;;;;;5014949;28;10381;-67
2022/05/19 10:00:56;;;;;;;;;6.50;3.75;18.10;99.90;;;;;;5014025;28;10292;-68
2022/05/19 10:03:38;;;;;;;;;3.00;3.00;18.10;99.90;;;;;;5001519;28;10712;-68
2022/05/19 10:06:24;;;;;;;;;7.25;4.50;18.10;99.90;;;;;;5014729;28;10204;-67
2022/05/19 10:09:00;;;;;;;;;2.75;2.75;18.10;99.90;;;;;;5015969;28;10322;-67
2022/05/19 10:11:30;;;;;;;;;4.25;3.00;18.10;99.90;;;;;;4991412;28;11341;-67
2022/05/19 10:14:03;;;;;;;;;2.00;2.00;18.10;99.90;;;;;;5017491;28;10533;-68
2022/05/19 10:17:00;;;;;;;;;4.00;4.00;18.00;99.90;;;;;;5010671;28;10530;-68
2022/05/19 10:19:51;;;;;;;;;3.75;3.50;18.00;99.90;;;;;;5012825;28;10669;-68
2022/05/19 10:22:57;;;;;;;;;3.75;3.75;18.00;99.90;;;;;;5011775;28;10396;-68
2022/05/19 10:25:40;;;;;;;;;3.75;3.00;18.00;99.90;;;;;;5014458;28;10950;-68
2022/05/19 10:31:31;;;;;;;;;5.75;4.25;17.90;99.90;;;;;;5011714;28;11384;-67
2022/05/19 10:34:21;;;;;;;;;3.75;3.25;17.90;99.90;;;;;;5015924;28;10591;-68
2022/05/19 10:37:13;;;;;;;;;2.00;2.00;17.90;99.90;;;;;;5016573;28;10695;-68
2022/05/19 10:40:12;;;;;;;;;2.50;2.50;17.90;99.90;;;;;;5026382;28;10692;-68
2022/05/19 10:42:58;;;;;;;;;6.25;4.50;17.80;99.90;;;;;;5018625;28;10845;-68
2022/05/19 10:45:42;;;;;;;;;4.75;4.75;17.80;99.90;;;;;;5020282;28;10890;-69
2022/05/19 10:48:50;;;;;;;;;5.00;4.00;17.80;99.90;;;;;;5019519;28;11717;-68
2022/05/19 10:51:48;;;;;;;;;5.00;3.50;17.80;99.90;;;;;;5018541;28;10908;-68
2022/05/19 10:54:23;;;;;;;;;5.75;5.75;17.70;99.90;;;;;;5012801;28;10847;-68
2022/05/19 10:57:01;;;;;;;;;5.25;4.25;17.70;99.90;;;;;;5013238;28;11192;-68
2022/05/19 10:59:53;;;;;;;;;4.50;4.00;17.70;99.90;;;;;;5013526;28;10934;-68
2022/05/19 11:03:06;;;;;;;;;3.25;3.25;17.70;99.90;;;;;;5024008;28;10967;-66
2022/05/19 11:06:03;;;;;;;;;5.00;5.00;17.70;99.90;;;;;;5021833;28;11045;-67
2022/05/19 11:08:39;;;;;;;;;2.25;2.25;17.60;99.90;;;;;;5019654;28;11613;-67
2022/05/19 11:11:18;;;;;;;;;5.75;4.00;17.60;99.90;;;;;;4998627;28;11504;-66
2022/05/19 11:14:28;;;;;;;;;4.75;3.00;17.60;99.90;;;;;;5021427;28;11470;-66
2022/05/19 11:17:21;;;;;;;;;4.75;3.50;17.60;99.90;;;;;;5015769;28;11640;-67
2022/05/19 11:20:01;;;;;;;;;2.75;2.75;17.60;99.90;;;;;;5005690;28;11466;-67
2022/05/19 11:22:38;;;;;;;;;5.25;4.00;17.60;99.90;;;;;;5017995;28;11592;-67
2022/05/19 11:28:06;;;;;;;;;3.50;3.00;17.50;99.90;;;;;;5012491;28;11449;-67
2022/05/19 11:30:47;;;;;;;;;4.50;4.50;17.50;99.90;;;;;;5021505;28;12392;-67
2022/05/19 11:33:27;;;;;;;;;3.00;3.00;17.50;99.90;;;;;;5017898;28;11491;-69
2022/05/19 11:36:03;;;;;;;;;5.25;5.25;17.50;99.90;;;;;;5016739;28;11584;-67
2022/05/19 11:39:26;;;;;;;;;11.75;11.75;17.50;99.90;;;;;;5012727;28;11536;-68
2022/05/19 11:42:01;;;;;;;;;17.00;17.00;17.40;99.90;;;;;;5002485;28;11719;-68
2022/05/19 11:44:36;;;;;;;;;16.50;16.50;17.40;99.90;;;;;;4994126;28;11506;-68
2022/05/19 11:47:14;;;;;;;;;26.50;25.00;17.40;99.90;;;;;;5018875;28;12223;-68
2022/05/19 11:56:06;;;;;;;;;45.50;38.50;17.30;99.90;;;;;;5028093;28;11642;-68
2022/05/19 11:58:38;;;;;;;;;44.50;38.75;17.30;99.90;;;;;;5015140;28;11661;-68
2022/05/19 12:01:29;;;;;;;;;44.50;38.75;17.30;99.90;;;;;;5010967;28;11596;-67
2022/05/19 12:04:12;;;;;;;;;56.00;46.33;17.30;99.90;;;;;;5015057;28;11636;-68
2022/05/19 12:06:49;;;;;;;;;57.00;47.67;17.30;99.90;;;;;;5016036;28;11613;-66
2022/05/19 12:09:31;;;;;;;;;56.33;47.33;17.30;99.90;;;;;;5022172;28;8860;-68
2022/05/19 12:12:34;;;;;;;;;53.25;45.25;17.20;99.90;;;;;;5001666;28;8857;-67
2022/05/19 12:15:22;;;;;;;;;54.25;44.75;17.20;99.90;;;;;;5020471;28;11584;-68
2022/05/19 12:17:58;;;;;;;;;54.25;45.75;17.20;99.90;;;;;;5018513;28;11580;-67
2022/05/19 12:20:45;;;;;;;;;53.50;45.25;17.20;99.90;;;;;;5024976;28;11716;-67
2022/05/19 12:23:26;;;;;;;;;55.00;46.00;17.20;99.90;;;;;;5019337;28;11619;-67
2022/05/19 12:26:07;;;;;;;;;56.75;47.75;17.20;99.90;;;;;;5019393;28;11590;-66
2022/05/19 12:29:07;;;;;;;;;57.25;47.50;17.10;99.90;;;;;;5024148;28;11752;-67
2022/05/19 12:31:59;;;;;;;;;50.75;43.75;17.10;99.90;;;;;;5025343;28;11746;-68
2022/05/19 12:34:50;;;;;;;;;34.00;30.50;17.10;99.90;;;;;;5009623;28;11623;-68
2022/05/19 12:37:50;;;;;;;;;27.00;26.75;17.10;99.90;;;;;;5015221;28;11602;-67
2022/05/19 12:40:53;;;;;;;;;26.50;26.50;17.10;99.90;;;;;;5017146;28;11602;-67
2022/05/19 12:43:44;;;;;;;;;23.00;20.75;17.00;99.90;;;;;;5005247;28;11643;-66
2022/05/19 12:46:34;;;;;;;;;23.50;23.50;17.00;99.90;;;;;;5019526;28;11499;-66
2022/05/19 12:49:26;;;;;;;;;16.25;14.50;17.00;99.90;;;;;;5028263;28;11553;-67
2022/05/19 12:52:01;;;;;;;;;17.50;17.50;17.00;99.90;;;;;;5016639;28;11530;-66
2022/05/19 12:54:34;;;;;;;;;23.25;23.25;17.00;99.90;;;;;;5002156;28;11516;-68
2022/05/19 12:57:13;;;;;;;;;24.75;24.75;17.00;99.90;;;;;;5016889;28;11550;-67
2022/05/19 12:59:52;;;;;;;;;24.50;24.50;17.00;99.90;;;;;;5018891;28;11676;-67
2022/05/19 13:02:38;;;;;;;;;24.00;24.00;16.90;99.90;;;;;;5018652;28;11504;-67
2022/05/19 13:05:33;;;;;;;;;21.75;21.75;16.90;99.90;;;;;;5020044;28;11510;-66
2022/05/19 13:08:12;;;;;;;;;14.75;14.75;16.90;99.90;;;;;;5016955;28;11509;-68
2022/05/19 13:10:50;;;;;;;;;11.75;11.75;16.90;99.90;;;;;;5018861;28;11508;-66
2022/05/19 13:13:27;;;;;;;;;9.25;9.25;16.90;99.90;;;;;;5002690;28;11549;-66
2022/05/19 13:16:02;;;;;;;;;9.25;6.75;16.80;99.90;;;;;;5019869;28;11514;-65
2022/05/19 13:18:37;;;;;;;;;4.00;4.00;16.80;99.90;;;;;;5012309;28;11197;-67
2022/05/19 13:21:20;;;;;;;;;7.50;5.50;16.80;99.90;;;;;;5015633;28;11212;-67
2022/05/19 13:23:51;;;;;;;;;5.00;3.25;16.80;99.90;;;;;;5028347;28;11224;-67
2022/05/19 13:26:27;;;;;;;;;5.75;4.50;16.80;99.90;;;;;;5023203;28;11115;-68
2022/05/19 13:32:02;;;;;;;;;9.00;7.50;16.80;99.90;;;;;;5011261;28;11214;-67
2022/05/19 13:34:42;;;;;;;;;6.75;5.00;16.80;99.90;;;;;;5016868;28;11141;-67
2022/05/19 13:37:27;;;;;;;;;6.00;4.50;16.80;99.90;;;;;;5013393;28;11188;-68
2022/05/19 13:40:20;;;;;;;;;4.75;4.75;16.70;99.90;;;;;;5011251;28;11139;-68
2022/05/19 13:42:55;;;;;;;;;10.25;7.00;16.70;99.90;;;;;;5018120;28;11303;-67
2022/05/19 13:45:51;;;;;;;;;6.25;6.25;16.70;99.90;;;;;;5016861;28;11524;-67
2022/05/19 13:48:51;;;;;;;;;8.25;7.50;16.70;99.90;;;;;;5013422;28;11548;-66
2022/05/19 13:51:23;;;;;;;;;10.50;9.25;16.70;99.90;;;;;;5015796;28;11507;-67
2022/05/19 13:53:59;;;;;;;;;17.50;16.00;16.70;99.90;;;;;;5015474;28;12248;-66
2022/05/19 13:56:40;;;;;;;;;20.75;19.50;16.70;99.90;;;;;;5015545;28;11523;-67
2022/05/19 13:59:16;;;;;;;;;24.50;23.25;16.70;99.90;;;;;;5016170;28;11524;-66
2022/05/19 14:01:52;;;;;;;;;23.00;23.00;16.70;99.90;;;;;;5015435;28;11514;-66
2022/05/19 14:04:25;;;;;;;;;21.75;21.75;16.70;99.90;;;;;;5013416;28;12211;-67
2022/05/19 14:06:58;;;;;;;;;19.00;19.00;16.70;99.90;;;;;;5010768;28;11545;-68